Hawaii Volcanoes National Park, HI

2:15 PM HST on July 29, 2014 (GMT -1000)
Bradshaw Army Air Field (PHSF) Elev 6191 ft | 19.76 °N, 155.55 °W | Change Station

Current weather conditions updated 19 minutes ago

Partly Cloudy
Partly Cloudy
73 °F
Feels Like 73 °F
N
12
Wind Variable Wind from West
Gusts 21 mph

Today is forecast to be nearly the same temperature as yesterday. Chance of showers.

Today
High -- | Low -- °F
--% Chance of Precip.
Yesterday
High -- | Low -- °F
Precip. -- in
5:56 AM 6:58 PM
Waxing Crescent, 8% visible
Pressure 29.96 in
Visibility 12.0 miles
Clouds Few 19000 ft
Dew Point 36 °F
Humidity 26%
Rainfall 0.00 in
Snow Depth Not available.
UV 12 out of 12
Pollen Not available.
Air Quality Not available.
Flu Activity Not available.
METAR PHSF 292356Z AUTO 26010G18KT 12SM FEW190 23/02 A3032 RMK AO2 SLP145 T02280022 10240 20183 57019

More Conditions Fewer Conditions

Pressure 29.96 in
Visibility 12.0 miles
Clouds Few 19000 ft
Dew Point 36 °F
Humidity 26%
Rainfall 0.00 in
Snow Depth Not available.
UV 12 out of 12
Pollen Not available.
Air Quality Not available.
Flu Activity Not available.
METAR PHSF 292356Z AUTO 26010G18KT 12SM FEW190 23/02 A3032 RMK AO2 SLP145 T02280022 10240 20183 57019

More Conditions Fewer Conditions

10-Day Weather Forecast

Almanac

Astronomy

Jul. 29, 2014 Rise Set
Actual Time 5:56 AM HST 6:58 PM HST
Civil Twilight 5:32 AM HST 7:21 PM HST
Nautical Twilight 5:05 AM HST 7:49 PM HST
Astronomical Twilight 4:36 AM HST 8:17 PM HST
Moon 8:14 AM HST (7/29) 8:48 PM HST (7/29)
Length of Visible Light 13h 48m
Length of Day
13h 01m
Tomorrow will be 0m 47s shorter.
Waxing Crescent, 8% of the Moon is Illuminated
Today
Waxing Crescent
Aug 3
First Quarter
Aug 10
Full
Aug 17
Last Quarter
Aug 25
New

Today's Extremes

State Highs State Lows

Community

WunderPhotos

Upload Photos

1,738,917 photos uploaded!

Nearby

Snow Depth

Station Depth Elevation
No new snow has been reported.

Earthquake Activity

City Distance Mag. Time & Date
No recent earthquake activity has been reported nearby.
Minimum magnitude displayed is 2.5.

Coastal Water Temperatures

Place Temperature
No Stations Reporting

Nearby Weather Stations

Station Location Temp. Heat Index Dew Point Humidity Wind Precip. Elev Updated Type
Volcano Village, Volcano, HI 68.5 °F - 64 °F 87% North  at  5.0 mph 0.00 in / hr 3796 ft 2:15 PM HST Normal
Kalapana Seaview Estates, Pāhoa, HI 90.5 °F 99 °F 73 °F 57% ESE  at  7.3 mph - / hr 151 ft 2:10 PM HST Normal
Kalani, Pahoa, HI 85.5 °F 108 °F 85 °F 98% WNW  at  4.2 mph - / hr 141 ft 2:10 PM HST Normal
Kamuela, HI 58.8 °F - 52 °F 76% NNE  at  9.0 mph 0.00 in / hr 8081 ft 2:14 PM HST Normal

Show More Stations Show Fewer Stations